sensor_id;sensor_type;location;lat;lon;timestamp;pressure;altitude;pressure_sealevel;temperature
86194;BMP180;76841;51.366;7.480;2024-02-23T13:08:41;97288.25;;;23.76
86194;BMP180;76841;51.366;7.480;2024-02-23T13:11:11;97291.25;;;23.86
86194;BMP180;76841;51.366;7.480;2024-02-23T13:13:37;97300.75;;;23.87
86194;BMP180;76841;51.366;7.480;2024-02-23T13:16:02;97293.22;;;23.98
86194;BMP180;76841;51.366;7.480;2024-02-23T13:47:12;97286.81;;;13.46
86194;BMP180;76841;51.366;7.480;2024-02-23T13:49:37;97287.09;;;13.48
86194;BMP180;76841;51.366;7.480;2024-02-23T13:52:02;97292.66;;;13.41
86194;BMP180;76841;51.366;7.480;2024-02-23T13:54:28;97286.63;;;13.14
86194;BMP180;76841;51.366;7.480;2024-02-23T13:56:53;97295.53;;;12.98
86194;BMP180;76841;51.366;7.480;2024-02-23T13:59:18;97288.28;;;12.80
86194;BMP180;76841;51.366;7.480;2024-02-23T14:01:44;97280.84;;;12.57
86194;BMP180;76841;51.366;7.480;2024-02-23T14:04:10;97279.59;;;12.62
86194;BMP180;76841;51.366;7.480;2024-02-23T14:06:35;97294.16;;;12.75
86194;BMP180;76841;51.366;7.480;2024-02-23T14:09:00;97284.00;;;12.74
86194;BMP180;76841;51.366;7.480;2024-02-23T14:11:26;97298.22;;;12.76
86194;BMP180;76841;51.366;7.480;2024-02-23T14:13:51;97301.00;;;12.73
86194;BMP180;76841;51.366;7.480;2024-02-23T14:16:16;97288.78;;;12.57
86194;BMP180;76841;51.366;7.480;2024-02-23T14:18:41;97306.84;;;12.68
86194;BMP180;76841;51.366;7.480;2024-02-23T14:21:09;97305.06;;;12.65
86194;BMP180;76841;51.366;7.480;2024-02-23T14:23:35;97279.28;;;12.60
86194;BMP180;76841;51.366;7.480;2024-02-23T14:26:00;97296.06;;;12.53
86194;BMP180;76841;51.366;7.480;2024-02-23T14:28:25;97306.50;;;12.57
86194;BMP180;76841;51.366;7.480;2024-02-23T14:30:51;97304.09;;;12.50
86194;BMP180;76841;51.366;7.480;2024-02-23T14:33:16;97300.53;;;12.35
86194;BMP180;76841;51.366;7.480;2024-02-23T14:35:41;97316.53;;;12.19
86194;BMP180;76841;51.366;7.480;2024-02-23T14:38:07;97293.97;;;12.18
86194;BMP180;76841;51.366;7.480;2024-02-23T14:40:32;97301.28;;;12.14
86194;BMP180;76841;51.366;7.480;2024-02-23T14:42:57;97309.78;;;12.18
86194;BMP180;76841;51.366;7.480;2024-02-23T14:45:23;97311.75;;;12.05
86194;BMP180;76841;51.366;7.480;2024-02-23T14:47:49;97309.03;;;11.96
86194;BMP180;76841;51.366;7.480;2024-02-23T14:50:14;97309.69;;;11.87
86194;BMP180;76841;51.366;7.480;2024-02-23T14:52:39;97318.59;;;11.81
86194;BMP180;76841;51.366;7.480;2024-02-23T14:55:05;97314.28;;;11.74
86194;BMP180;76841;51.366;7.480;2024-02-23T14:57:30;97303.59;;;11.56
86194;BMP180;76841;51.366;7.480;2024-02-23T14:59:55;97303.59;;;11.43
86194;BMP180;76841;51.366;7.480;2024-02-23T15:02:22;97324.38;;;11.41
86194;BMP180;76841;51.366;7.480;2024-02-23T15:04:47;97326.69;;;11.39
86194;BMP180;76841;51.366;7.480;2024-02-23T15:07:13;97318.69;;;11.30
86194;BMP180;76841;51.366;7.480;2024-02-23T15:09:38;97305.88;;;11.20
86194;BMP180;76841;51.366;7.480;2024-02-23T15:12:04;97319.75;;;11.20
86194;BMP180;76841;51.366;7.480;2024-02-23T15:14:29;97310.16;;;11.14
86194;BMP180;76841;51.366;7.480;2024-02-23T15:16:55;97318.91;;;11.23
86194;BMP180;76841;51.366;7.480;2024-02-23T15:19:20;97314.81;;;11.22
86194;BMP180;76841;51.366;7.480;2024-02-23T15:21:48;97324.78;;;11.40
86194;BMP180;76841;51.366;7.480;2024-02-23T15:24:13;97322.81;;;11.31
86194;BMP180;76841;51.366;7.480;2024-02-23T15:26:38;97317.97;;;11.17
86194;BMP180;76841;51.366;7.480;2024-02-23T15:29:04;97315.56;;;11.10
86194;BMP180;76841;51.366;7.480;2024-02-23T15:31:29;97305.34;;;11.00
86194;BMP180;76841;51.366;7.480;2024-02-23T15:33:55;97314.50;;;10.95
86194;BMP180;76841;51.366;7.480;2024-02-23T15:36:22;97311.03;;;10.86
86194;BMP180;76841;51.366;7.480;2024-02-23T15:38:47;97303.44;;;10.88
86194;BMP180;76841;51.366;7.480;2024-02-23T15:41:12;97319.56;;;10.90
86194;BMP180;76841;51.366;7.480;2024-02-23T15:43:38;97318.16;;;10.85
86194;BMP180;76841;51.366;7.480;2024-02-23T15:46:03;97320.69;;;10.89
86194;BMP180;76841;51.366;7.480;2024-02-23T15:48:28;97317.34;;;10.88
86194;BMP180;76841;51.366;7.480;2024-02-23T15:50:54;97316.47;;;10.91
86194;BMP180;76841;51.366;7.480;2024-02-23T15:53:19;97325.84;;;10.92
86194;BMP180;76841;51.366;7.480;2024-02-23T15:55:44;97325.66;;;10.99
86194;BMP180;76841;51.366;7.480;2024-02-23T15:58:10;97320.81;;;10.98
86194;BMP180;76841;51.366;7.480;2024-02-23T16:00:35;97328.00;;;10.97
86194;BMP180;76841;51.366;7.480;2024-02-23T16:03:01;97327.25;;;10.97
86194;BMP180;76841;51.366;7.480;2024-02-23T16:05:26;97343.78;;;10.97
86194;BMP180;76841;51.366;7.480;2024-02-23T16:07:52;97330.28;;;10.95
86194;BMP180;76841;51.366;7.480;2024-02-23T16:10:17;97340.16;;;10.91
86194;BMP180;76841;51.366;7.480;2024-02-23T16:12:49;97331.31;;;10.85
86194;BMP180;76841;51.366;7.480;2024-02-23T16:15:18;97328.38;;;10.83
86194;BMP180;76841;51.366;7.480;2024-02-23T16:17:43;97321.75;;;10.79
86194;BMP180;76841;51.366;7.480;2024-02-23T16:20:09;97342.78;;;10.79
86194;BMP180;76841;51.366;7.480;2024-02-23T16:22:34;97346.34;;;10.72
86194;BMP180;76841;51.366;7.480;2024-02-23T16:24:59;97340.78;;;10.70
86194;BMP180;76841;51.366;7.480;2024-02-23T16:27:25;97330.13;;;10.61
86194;BMP180;76841;51.366;7.480;2024-02-23T16:29:50;97330.66;;;10.56
86194;BMP180;76841;51.366;7.480;2024-02-23T16:32:15;97334.59;;;10.48
86194;BMP180;76841;51.366;7.480;2024-02-23T16:34:40;97333.97;;;10.44
86194;BMP180;76841;51.366;7.480;2024-02-23T16:37:06;97332.41;;;10.34
86194;BMP180;76841;51.366;7.480;2024-02-23T16:39:31;97335.00;;;10.34
86194;BMP180;76841;51.366;7.480;2024-02-23T16:41:56;97340.44;;;10.27
86194;BMP180;76841;51.366;7.480;2024-02-23T16:44:21;97348.16;;;10.18
86194;BMP180;76841;51.366;7.480;2024-02-23T16:46:48;97351.53;;;10.18
86194;BMP180;76841;51.366;7.480;2024-02-23T16:49:14;97347.59;;;10.10
86194;BMP180;76841;51.366;7.480;2024-02-23T16:51:39;97364.78;;;10.15
86194;BMP180;76841;51.366;7.480;2024-02-23T16:54:04;97363.31;;;10.14
86194;BMP180;76841;51.366;7.480;2024-02-23T16:56:30;97363.38;;;10.10
86194;BMP180;76841;51.366;7.480;2024-02-23T16:58:55;97361.19;;;10.09
86194;BMP180;76841;51.366;7.480;2024-02-23T17:01:20;97357.56;;;10.03
86194;BMP180;76841;51.366;7.480;2024-02-23T17:03:46;97352.50;;;9.96
86194;BMP180;76841;51.366;7.480;2024-02-23T17:06:11;97363.81;;;9.93
86194;BMP180;76841;51.366;7.480;2024-02-23T17:08:36;97362.44;;;9.88
86194;BMP180;76841;51.366;7.480;2024-02-23T17:11:01;97369.22;;;9.86
86194;BMP180;76841;51.366;7.480;2024-02-23T17:13:31;97368.28;;;9.80
86194;BMP180;76841;51.366;7.480;2024-02-23T17:15:56;97363.50;;;9.75
86194;BMP180;76841;51.366;7.480;2024-02-23T17:18:22;97364.25;;;9.75
86194;BMP180;76841;51.366;7.480;2024-02-23T17:20:53;97384.53;;;9.75
86194;BMP180;76841;51.366;7.480;2024-02-23T17:23:18;97371.84;;;9.70
86194;BMP180;76841;51.366;7.480;2024-02-23T17:25:43;97385.31;;;9.72
86194;BMP180;76841;51.366;7.480;2024-02-23T17:28:10;97389.09;;;9.71
86194;BMP180;76841;51.366;7.480;2024-02-23T17:30:39;97383.84;;;9.71
86194;BMP180;76841;51.366;7.480;2024-02-23T17:33:04;97381.56;;;9.73
86194;BMP180;76841;51.366;7.480;2024-02-23T17:35:30;97380.06;;;9.72
86194;BMP180;76841;51.366;7.480;2024-02-23T17:37:56;97383.34;;;9.76
86194;BMP180;76841;51.366;7.480;2024-02-23T17:40:21;97381.56;;;9.73
86194;BMP180;76841;51.366;7.480;2024-02-23T17:42:46;97377.78;;;9.74
86194;BMP180;76841;51.366;7.480;2024-02-23T17:45:11;97379.28;;;9.75
86194;BMP180;76841;51.366;7.480;2024-02-23T17:47:37;97386.41;;;9.74
86194;BMP180;76841;51.366;7.480;2024-02-23T17:50:02;97383.69;;;9.78
86194;BMP180;76841;51.366;7.480;2024-02-23T17:52:28;97388.63;;;9.76
86194;BMP180;76841;51.366;7.480;2024-02-23T17:54:53;97380.72;;;9.76
86194;BMP180;76841;51.366;7.480;2024-02-23T17:57:18;97390.75;;;9.81
86194;BMP180;76841;51.366;7.480;2024-02-23T17:59:46;97397.78;;;9.84
86194;BMP180;76841;51.366;7.480;2024-02-23T18:02:11;97388.78;;;9.85
86194;BMP180;76841;51.366;7.480;2024-02-23T18:04:36;97391.72;;;9.87
86194;BMP180;76841;51.366;7.480;2024-02-23T18:07:02;97392.44;;;9.87
86194;BMP180;76841;51.366;7.480;2024-02-23T18:09:27;97393.19;;;9.88
86194;BMP180;76841;51.366;7.480;2024-02-23T18:11:52;97400.75;;;9.86
86194;BMP180;76841;51.366;7.480;2024-02-23T18:14:18;97396.97;;;9.87
86194;BMP180;76841;51.366;7.480;2024-02-23T18:16:43;97402.25;;;9.87
86194;BMP180;76841;51.366;7.480;2024-02-23T18:19:10;97393.19;;;9.88
86194;BMP180;76841;51.366;7.480;2024-02-23T18:21:35;97390.97;;;9.86
86194;BMP180;76841;51.366;7.480;2024-02-23T18:24:00;97394.69;;;9.89
86194;BMP180;76841;51.366;7.480;2024-02-23T18:26:26;97398.13;;;9.86
86194;BMP180;76841;51.366;7.480;2024-02-23T18:28:52;97396.97;;;9.87
86194;BMP180;76841;51.366;7.480;2024-02-23T18:31:18;97400.00;;;9.85
86194;BMP180;76841;51.366;7.480;2024-02-23T18:33:44;97397.16;;;9.80
86194;BMP180;76841;51.366;7.480;2024-02-23T18:36:09;97404.69;;;9.78
86194;BMP180;76841;51.366;7.480;2024-02-23T18:38:39;97401.75;;;9.76
86194;BMP180;76841;51.366;7.480;2024-02-23T18:41:05;97401.41;;;9.74
86194;BMP180;76841;51.366;7.480;2024-02-23T18:43:33;97392.66;;;9.64
86194;BMP180;76841;51.366;7.480;2024-02-23T18:46:03;97413.69;;;9.61
86194;BMP180;76841;51.366;7.480;2024-02-23T18:48:29;97419.09;;;9.53
86194;BMP180;76841;51.366;7.480;2024-02-23T18:50:54;97415.06;;;9.49
86194;BMP180;76841;51.366;7.480;2024-02-23T18:53:20;97419.66;;;9.45
86194;BMP180;76841;51.366;7.480;2024-02-23T18:55:46;97411.38;;;9.46
86194;BMP180;76841;51.366;7.480;2024-02-23T18:58:11;97424.13;;;9.48
86194;BMP180;76841;51.366;7.480;2024-02-23T19:00:37;97423.38;;;9.47
86194;BMP180;76841;51.366;7.480;2024-02-23T19:03:03;97418.91;;;9.44
86194;BMP180;76841;51.366;7.480;2024-02-23T19:05:28;97429.56;;;9.37
86194;BMP180;76841;51.366;7.480;2024-02-23T19:07:53;97419.47;;;9.36
86194;BMP180;76841;51.366;7.480;2024-02-23T19:10:19;97427.44;;;9.32
86194;BMP180;76841;51.366;7.480;2024-02-23T19:12:44;97417.31;;;9.31
86194;BMP180;76841;51.366;7.480;2024-02-23T19:15:09;97412.41;;;9.33
86194;BMP180;76841;51.366;7.480;2024-02-23T19:17:35;97416.25;;;9.28
86194;BMP180;76841;51.366;7.480;2024-02-23T19:20:02;97416.25;;;9.28
86194;BMP180;76841;51.366;7.480;2024-02-23T19:22:33;97413.81;;;9.21
86194;BMP180;76841;51.366;7.480;2024-02-23T19:24:59;97415.75;;;9.17
86194;BMP180;76841;51.366;7.480;2024-02-23T19:27:24;97422.53;;;9.15
86194;BMP180;76841;51.366;7.480;2024-02-23T19:29:49;97413.66;;;9.09
86194;BMP180;76841;51.366;7.480;2024-02-23T19:32:14;97420.78;;;9.08
86194;BMP180;76841;51.366;7.480;2024-02-23T19:34:39;97429.41;;;9.09
86194;BMP180;76841;51.366;7.480;2024-02-23T19:37:05;97433.91;;;9.08
86194;BMP180;76841;51.366;7.480;2024-02-23T19:39:30;97431.75;;;9.03
86194;BMP180;76841;51.366;7.480;2024-02-23T19:41:55;97434.72;;;9.05
86194;BMP180;76841;51.366;7.480;2024-02-23T19:44:20;97438.16;;;9.02
86194;BMP180;76841;51.366;7.480;2024-02-23T19:46:46;97443.41;;;9.02
86194;BMP180;76841;51.366;7.480;2024-02-23T19:49:11;97444.47;;;9.05
86194;BMP180;76841;51.366;7.480;2024-02-23T19:51:36;97439.97;;;9.05
86194;BMP180;76841;51.366;7.480;2024-02-23T19:54:03;97443.72;;;9.04
86194;BMP180;76841;51.366;7.480;2024-02-23T19:56:28;97453.16;;;9.02
86194;BMP180;76841;51.366;7.480;2024-02-23T19:58:55;97441.63;;;8.96
86194;BMP180;76841;51.366;7.480;2024-02-23T20:01:21;97453.25;;;8.95
86194;BMP180;76841;51.366;7.480;2024-02-23T20:03:46;97446.97;;;8.92
86194;BMP180;76841;51.366;7.480;2024-02-23T20:06:12;97457.47;;;8.92
86194;BMP180;76841;51.366;7.480;2024-02-23T20:08:38;97454.47;;;8.90
86194;BMP180;76841;51.366;7.480;2024-02-23T20:11:03;97466.47;;;8.91
86194;BMP180;76841;51.366;7.480;2024-02-23T20:13:30;97470.22;;;8.90
86194;BMP180;76841;51.366;7.480;2024-02-23T20:15:55;97482.84;;;8.95
86194;BMP180;76841;51.366;7.480;2024-02-23T20:18:20;97481.38;;;8.94
86194;BMP180;76841;51.366;7.480;2024-02-23T20:20:45;97476.47;;;8.96
86194;BMP180;76841;51.366;7.480;2024-02-23T20:23:11;97479.16;;;8.93
86194;BMP180;76841;51.366;7.480;2024-02-23T20:25:40;97474.00;;;8.89
86194;BMP180;76841;51.366;7.480;2024-02-23T20:28:06;97478.16;;;8.87
86194;BMP180;76841;51.366;7.480;2024-02-23T20:30:31;97474.44;;;8.84
86194;BMP180;76841;51.366;7.480;2024-02-23T20:32:57;97477.88;;;8.81
86194;BMP180;76841;51.366;7.480;2024-02-23T20:35:22;97471.50;;;8.82
86194;BMP180;76841;51.366;7.480;2024-02-23T20:37:47;97468.19;;;8.78
86194;BMP180;76841;51.366;7.480;2024-02-23T20:40:13;97462.28;;;8.74
86194;BMP180;76841;51.366;7.480;2024-02-23T20:42:38;97473.47;;;8.75
86194;BMP180;76841;51.366;7.480;2024-02-23T20:45:05;97461.94;;;8.72
86194;BMP180;76841;51.366;7.480;2024-02-23T20:47:33;97466.81;;;8.70
86194;BMP180;76841;51.366;7.480;2024-02-23T20:49:59;97471.38;;;8.66
86194;BMP180;76841;51.366;7.480;2024-02-23T20:52:24;97467.69;;;8.64
86194;BMP180;76841;51.366;7.480;2024-02-23T20:54:50;97471.38;;;8.66
86194;BMP180;76841;51.366;7.480;2024-02-23T20:57:16;97474.75;;;8.67
86194;BMP180;76841;51.366;7.480;2024-02-23T20:59:41;97466.22;;;8.63
86194;BMP180;76841;51.366;7.480;2024-02-23T21:02:07;97469.91;;;8.65
86194;BMP180;76841;51.366;7.480;2024-02-23T21:04:32;97469.22;;;8.61
86194;BMP180;76841;51.366;7.480;2024-02-23T21:06:59;97472.25;;;8.60
86194;BMP180;76841;51.366;7.480;2024-02-23T21:09:25;97470.16;;;8.51
86194;BMP180;76841;51.366;7.480;2024-02-23T21:11:50;97478.38;;;8.53
86194;BMP180;76841;51.366;7.480;2024-02-23T21:14:15;97470.94;;;8.48
86194;BMP180;76841;51.366;7.480;2024-02-23T21:16:45;97474.72;;;8.47
86194;BMP180;76841;51.366;7.480;2024-02-23T21:19:11;97474.72;;;8.47
86194;BMP180;76841;51.366;7.480;2024-02-23T21:21:36;97472.56;;;8.42
86194;BMP180;76841;51.366;7.480;2024-02-23T21:24:03;97478.56;;;8.39
86194;BMP180;76841;51.366;7.480;2024-02-23T21:26:29;97481.59;;;8.37
86194;BMP180;76841;51.366;7.480;2024-02-23T21:28:55;97477.56;;;8.33
86194;BMP180;76841;51.366;7.480;2024-02-23T21:31:21;97486.09;;;8.37
86194;BMP180;76841;51.366;7.480;2024-02-23T21:33:46;97489.84;;;8.36
86194;BMP180;76841;51.366;7.480;2024-02-23T21:36:16;97481.66;;;8.34
86194;BMP180;76841;51.366;7.480;2024-02-23T21:38:41;97487.72;;;8.27
86194;BMP180;76841;51.366;7.480;2024-02-23T21:41:07;97474.72;;;8.24
86194;BMP180;76841;51.366;7.480;2024-02-23T21:43:33;97491.44;;;8.30
86194;BMP180;76841;51.366;7.480;2024-02-23T21:45:58;97486.97;;;8.27
86194;BMP180;76841;51.366;7.480;2024-02-23T21:48:23;97486.31;;;8.23
86194;BMP180;76841;51.366;7.480;2024-02-23T21:50:48;97488.88;;;8.26
86194;BMP180;76841;51.366;7.480;2024-02-23T21:53:13;97481.75;;;8.27
86194;BMP180;76841;51.366;7.480;2024-02-23T21:55:39;97484.75;;;8.29
86194;BMP180;76841;51.366;7.480;2024-02-23T21:58:04;97490.28;;;8.34
86194;BMP180;76841;51.366;7.480;2024-02-23T22:00:29;97493.59;;;8.35
86194;BMP180;76841;51.366;7.480;2024-02-23T22:02:54;97504.84;;;8.35
86194;BMP180;76841;51.366;7.480;2024-02-23T22:05:20;97492.94;;;8.31
86194;BMP180;76841;51.366;7.480;2024-02-23T22:07:45;97483.31;;;8.24
86194;BMP180;76841;51.366;7.480;2024-02-23T22:10:10;97492.94;;;8.31
86194;BMP180;76841;51.366;7.480;2024-02-23T22:12:36;97491.78;;;8.32
86194;BMP180;76841;51.366;7.480;2024-02-23T22:15:01;97483.59;;;8.30
86194;BMP180;76841;51.366;7.480;2024-02-23T22:17:28;97489.97;;;8.29
86194;BMP180;76841;51.366;7.480;2024-02-23T22:19:53;97486.94;;;8.30
86194;BMP180;76841;51.366;7.480;2024-02-23T22:22:18;97480.97;;;8.30
86194;BMP180;76841;51.366;7.480;2024-02-23T22:24:43;97473.47;;;8.32
86194;BMP180;76841;51.366;7.480;2024-02-23T22:27:09;97477.88;;;8.35
86194;BMP180;76841;51.366;7.480;2024-02-23T22:29:34;97484.59;;;8.36
86194;BMP180;76841;51.366;7.480;2024-02-23T22:32:00;97480.97;;;8.30
86194;BMP180;76841;51.366;7.480;2024-02-23T22:34:26;97460.22;;;8.16
86194;BMP180;76841;51.366;7.480;2024-02-23T22:36:51;97486.91;;;8.34
86194;BMP180;76841;51.366;7.480;2024-02-23T22:39:17;97491.34;;;8.37
86194;BMP180;76841;51.366;7.480;2024-02-23T22:41:43;97486.56;;;8.32
86194;BMP180;76841;51.366;7.480;2024-02-23T22:44:08;97485.09;;;8.31
86194;BMP180;76841;51.366;7.480;2024-02-23T22:46:33;97487.22;;;8.36
86194;BMP180;76841;51.366;7.480;2024-02-23T22:48:58;97484.59;;;8.36
86194;BMP180;76841;51.366;7.480;2024-02-23T22:51:24;97471.19;;;8.34
86194;BMP180;76841;51.366;7.480;2024-02-23T22:53:49;97466.75;;;8.31
86194;BMP180;76841;51.366;7.480;2024-02-23T22:56:15;97475.69;;;8.33
86194;BMP180;76841;51.366;7.480;2024-02-23T22:58:40;97466.03;;;8.27
86194;BMP180;76841;51.366;7.480;2024-02-23T23:01:05;97481.31;;;8.32
86194;BMP180;76841;51.366;7.480;2024-02-23T23:03:30;97469.13;;;8.22
86194;BMP180;76841;51.366;7.480;2024-02-23T23:05:56;97485.50;;;8.26
86194;BMP180;76841;51.366;7.480;2024-02-23T23:08:21;97489.25;;;8.25
86194;BMP180;76841;51.366;7.480;2024-02-23T23:10:46;97490.09;;;8.22
86194;BMP180;76841;51.366;7.480;2024-02-23T23:13:11;97468.91;;;8.13
86194;BMP180;76841;51.366;7.480;2024-02-23T23:15:37;97492.72;;;8.22
86194;BMP180;76841;51.366;7.480;2024-02-23T23:18:02;97488.56;;;8.24
86194;BMP180;76841;51.366;7.480;2024-02-23T23:20:27;97480.38;;;8.19
86194;BMP180;76841;51.366;7.480;2024-02-23T23:22:56;97485.22;;;8.20
86194;BMP180;76841;51.366;7.480;2024-02-23T23:25:21;97492.34;;;8.20
86194;BMP180;76841;51.366;7.480;2024-02-23T23:27:46;97487.81;;;8.24
86194;BMP180;76841;51.366;7.480;2024-02-23T23:30:12;97506.38;;;8.33
86194;BMP180;76841;51.366;7.480;2024-02-23T23:32:38;97491.09;;;8.28
86194;BMP180;76841;51.366;7.480;2024-02-23T23:35:05;97493.72;;;8.28
86194;BMP180;76841;51.366;7.480;2024-02-23T23:37:30;97503.38;;;8.34
86194;BMP180;76841;51.366;7.480;2024-02-23T23:39:55;97493.72;;;8.28
86194;BMP180;76841;51.366;7.480;2024-02-23T23:42:21;97500.41;;;8.32
86194;BMP180;76841;51.366;7.480;2024-02-23T23:44:46;97489.91;;;8.32
86194;BMP180;76841;51.366;7.480;2024-02-23T23:47:12;97491.50;;;8.26
86194;BMP180;76841;51.366;7.480;2024-02-23T23:49:37;97485.50;;;8.26
86194;BMP180;76841;51.366;7.480;2024-02-23T23:52:02;97490.34;;;8.27
86194;BMP180;76841;51.366;7.480;2024-02-23T23:54:27;97489.22;;;8.28
86194;BMP180;76841;51.366;7.480;2024-02-23T23:56:53;97487.13;;;8.20
86194;BMP180;76841;51.366;7.480;2024-02-23T23:59:18;97487.81;;;8.24
